createdAt,value
2019-03-19T00:00:25.935Z,102348.77
2019-03-19T00:02:55.120Z,102348.77
2019-03-19T00:05:24.369Z,102359.97
2019-03-19T00:07:53.703Z,102359.59
2019-03-19T00:10:22.959Z,102358.61
2019-03-19T00:12:52.147Z,102354.13
2019-03-19T00:15:21.328Z,102355.54
2019-03-19T00:17:50.530Z,102355.09
2019-03-19T00:20:19.755Z,102359.12
2019-03-19T00:22:48.852Z,102358.25
2019-03-19T00:25:29.110Z,102362.81
2019-03-19T00:27:49.019Z,102361.98
2019-03-19T00:30:18.781Z,102364.17
2019-03-19T00:32:48.011Z,102362.42
2019-03-19T00:35:17.177Z,102363.38
2019-03-19T00:37:46.391Z,102365.03
2019-03-19T00:40:16.514Z,102358.89
2019-03-19T00:42:45.688Z,102353.84
2019-03-19T00:45:15.112Z,102355.95
2019-03-19T00:47:44.339Z,102356.02
2019-03-19T00:50:16.627Z,102356.04
2019-03-19T00:52:45.799Z,102354.68
2019-03-19T00:55:15.109Z,102351.95
2019-03-19T00:57:44.294Z,102355.65
2019-03-19T01:00:18.067Z,102354.68
2019-03-19T01:02:47.275Z,102352.79
2019-03-19T01:05:16.450Z,102355.08
2019-03-19T01:07:45.615Z,102347.92
2019-03-19T01:10:17.496Z,102350.42
2019-03-19T01:12:46.136Z,102350.37
2019-03-19T01:15:15.602Z,102348.13
2019-03-19T01:17:44.772Z,102345.48
2019-03-19T01:20:15.394Z,102345.35
2019-03-19T01:22:44.579Z,102358.94
2019-03-19T01:25:13.749Z,102362.09
2019-03-19T01:27:42.968Z,102356.84
2019-03-19T01:30:16.513Z,102365.61
2019-03-19T01:32:45.684Z,102367.59
2019-03-19T01:35:14.943Z,102366.81
2019-03-19T01:37:44.111Z,102369.88
2019-03-19T01:40:13.677Z,102357.19
2019-03-19T01:42:42.850Z,102358.63
2019-03-19T01:45:13.256Z,102363.88
2019-03-19T01:47:42.511Z,102357.83
2019-03-19T01:50:16.125Z,102365.28
2019-03-19T01:52:45.315Z,102367.55
2019-03-19T01:55:15.434Z,102371.98
2019-03-19T01:57:44.606Z,102375.04
2019-03-19T02:00:16.388Z,102368.22
2019-03-19T02:02:45.554Z,102368.69
2019-03-19T02:05:14.854Z,102365.27
2019-03-19T02:07:44.015Z,102362.70
2019-03-19T02:10:14.217Z,102369.42
2019-03-19T02:12:43.462Z,102376.41
2019-03-19T02:15:14.997Z,102374.27
2019-03-19T02:17:44.269Z,102377.73
2019-03-19T02:20:14.979Z,102379.44
2019-03-19T02:22:44.219Z,102380.16
2019-03-19T02:25:13.393Z,102386.48
2019-03-19T02:27:42.558Z,102390.89
2019-03-19T02:30:14.330Z,102386.41
2019-03-19T02:32:43.524Z,102389.91
2019-03-19T02:35:12.867Z,102393.06
2019-03-19T02:37:42.039Z,102391.64
2019-03-19T02:40:13.261Z,102402.47
2019-03-19T02:42:42.486Z,102393.47
2019-03-19T02:45:12.897Z,102399.86
2019-03-19T02:47:42.079Z,102402.87
2019-03-19T02:50:13.000Z,102407.46
2019-03-19T02:52:42.215Z,102412.85
2019-03-19T02:55:11.453Z,102401.27
2019-03-19T02:57:40.635Z,102396.80
2019-03-19T03:00:14.668Z,102405.74
2019-03-19T03:02:43.858Z,102395.50
2019-03-19T03:05:20.131Z,102401.58
2019-03-19T03:07:49.372Z,102397.92
2019-03-19T03:10:18.699Z,102399.34
2019-03-19T03:12:47.977Z,102411.93
2019-03-19T03:15:17.133Z,102416.03
2019-03-19T03:17:46.309Z,102421.41
2019-03-19T03:20:16.400Z,102424.89
2019-03-19T03:22:45.668Z,102425.80
2019-03-19T03:25:18.308Z,102427.20
2019-03-19T03:27:47.490Z,102424.55
2019-03-19T03:30:18.221Z,102421.00
2019-03-19T03:32:47.447Z,102424.13
2019-03-19T03:35:16.584Z,102426.33
2019-03-19T03:37:45.775Z,102421.88
2019-03-19T03:40:16.276Z,102429.29
2019-03-19T03:42:45.495Z,102432.41
2019-03-19T03:45:16.783Z,102433.27
2019-03-19T03:47:45.992Z,102430.95
2019-03-19T03:50:16.293Z,102436.66
2019-03-19T03:52:45.487Z,102430.97
2019-03-19T03:55:15.580Z,102439.45
2019-03-19T03:57:44.754Z,102435.12
2019-03-19T04:00:17.022Z,102438.19
2019-03-19T04:02:46.266Z,102431.48
2019-03-19T04:05:15.612Z,102440.39
2019-03-19T04:07:44.910Z,102435.93
2019-03-19T04:10:16.407Z,102441.24
2019-03-19T04:12:45.607Z,102439.87
2019-03-19T04:15:16.676Z,102436.41
2019-03-19T04:17:45.846Z,102438.25
2019-03-19T04:20:16.174Z,102440.91
2019-03-19T04:22:45.368Z,102435.07
2019-03-19T04:25:14.677Z,102446.19
2019-03-19T04:27:43.883Z,102440.00
2019-03-19T04:30:20.122Z,102442.29
2019-03-19T04:32:49.362Z,102442.29
2019-03-19T04:35:18.509Z,102446.27
2019-03-19T04:37:47.707Z,102445.83
2019-03-19T04:40:17.238Z,102453.85
2019-03-19T04:42:46.490Z,102455.64
2019-03-19T04:45:16.692Z,102461.00
2019-03-19T04:47:46.026Z,102458.30
2019-03-19T04:50:16.272Z,102460.96
2019-03-19T04:52:45.424Z,102468.10
2019-03-19T04:55:15.442Z,102464.63
2019-03-19T04:57:44.688Z,102468.22
2019-03-19T05:00:16.157Z,102462.05
2019-03-19T05:02:45.340Z,102466.48
2019-03-19T05:05:14.531Z,102465.15
2019-03-19T05:07:43.797Z,102458.93
2019-03-19T05:10:19.325Z,102446.08
2019-03-19T05:12:49.353Z,102454.03
2019-03-19T05:15:18.567Z,102462.88
2019-03-19T05:17:47.750Z,102462.47
2019-03-19T05:20:18.112Z,102458.48
2019-03-19T05:22:47.313Z,102463.34
2019-03-19T05:25:16.490Z,102463.77
2019-03-19T05:27:45.957Z,102464.67
2019-03-19T05:30:19.211Z,102465.97
2019-03-19T05:32:48.420Z,102463.33
2019-03-19T05:35:17.613Z,102461.97
2019-03-19T05:37:46.810Z,102460.67
2019-03-19T05:40:16.869Z,102465.95
2019-03-19T05:42:46.082Z,102469.48
2019-03-19T05:45:15.848Z,102476.11
2019-03-19T05:47:45.036Z,102473.91
2019-03-19T05:50:16.480Z,102474.36
2019-03-19T05:52:48.320Z,102483.20
2019-03-19T05:55:16.616Z,102484.58
2019-03-19T05:57:49.809Z,102491.70
2019-03-19T06:00:19.342Z,102490.39
2019-03-19T06:02:48.598Z,102495.70
2019-03-19T06:05:17.796Z,102493.47
2019-03-19T06:07:46.978Z,102487.72
2019-03-19T06:10:16.280Z,102492.58
2019-03-19T06:12:45.468Z,102501.42
2019-03-19T06:15:17.477Z,102501.84
2019-03-19T06:17:46.668Z,102502.73
2019-03-19T06:20:20.525Z,102499.61
2019-03-19T06:22:49.736Z,102504.45
2019-03-19T06:25:18.996Z,102500.39
2019-03-19T06:27:48.168Z,102505.22
2019-03-19T06:30:22.736Z,102507.00
2019-03-19T06:32:51.917Z,102507.41
2019-03-19T06:35:21.176Z,102511.41
2019-03-19T06:37:50.441Z,102510.91
2019-03-19T06:40:23.037Z,102512.53
2019-03-19T06:42:52.175Z,102515.95
2019-03-19T06:45:23.256Z,102522.52
2019-03-19T06:47:52.599Z,102527.12
2019-03-19T06:50:22.118Z,102526.13
2019-03-19T06:52:51.319Z,102533.59
2019-03-19T06:55:21.156Z,102533.47
2019-03-19T06:57:50.332Z,102526.37
2019-03-19T07:00:23.814Z,102533.19
2019-03-19T07:02:53.038Z,102539.80
2019-03-19T07:05:22.864Z,102544.66
2019-03-19T07:07:52.060Z,102546.37
2019-03-19T07:10:21.774Z,102549.94
2019-03-19T07:12:50.949Z,102553.06
2019-03-19T07:15:23.615Z,102557.54
2019-03-19T07:17:52.824Z,102561.53
2019-03-19T07:20:26.891Z,102565.52
2019-03-19T07:22:56.138Z,102571.23
2019-03-19T07:25:25.316Z,102566.82
2019-03-19T07:27:54.499Z,102576.55
2019-03-19T07:30:24.636Z,102573.89
2019-03-19T07:32:53.824Z,102584.08
2019-03-19T07:35:23.017Z,102588.94
2019-03-19T07:37:52.211Z,102581.00
2019-03-19T07:40:21.381Z,102583.20
2019-03-19T07:42:50.565Z,102588.94
2019-03-19T07:45:21.170Z,102587.99
2019-03-19T07:47:50.415Z,102595.55
2019-03-19T07:50:23.717Z,102602.21
2019-03-19T07:52:53.030Z,102600.42
2019-03-19T07:55:22.230Z,102600.42
2019-03-19T07:57:51.412Z,102597.30
2019-03-19T08:00:23.732Z,102603.95
2019-03-19T08:02:52.905Z,102607.03
2019-03-19T08:05:32.238Z,102605.30
2019-03-19T08:07:52.978Z,102615.02
2019-03-19T08:10:22.179Z,102617.27
2019-03-19T08:12:51.350Z,102614.52
2019-03-19T08:15:23.492Z,102610.98
2019-03-19T08:17:52.670Z,102615.38
2019-03-19T08:20:21.892Z,102621.13
2019-03-19T08:22:51.076Z,102625.99
2019-03-19T08:25:20.260Z,102621.55
2019-03-19T08:27:49.364Z,102627.37
2019-03-19T08:30:28.246Z,102626.05
2019-03-19T08:32:57.437Z,102625.99
2019-03-19T08:35:26.624Z,102628.61
2019-03-19T08:37:55.818Z,102621.48
2019-03-19T08:40:24.977Z,102621.42
2019-03-19T08:42:54.156Z,102620.95
2019-03-19T08:45:24.599Z,102626.75
2019-03-19T08:47:53.780Z,102629.81
2019-03-19T08:50:23.791Z,102636.00
2019-03-19T08:52:55.272Z,102638.20
2019-03-19T08:55:23.836Z,102637.68
2019-03-19T08:57:53.025Z,102642.07
2019-03-19T09:00:27.364Z,102643.08
2019-03-19T09:02:56.544Z,102643.03
2019-03-19T09:05:25.724Z,102649.67
2019-03-19T09:07:54.976Z,102648.75
2019-03-19T09:10:24.206Z,102641.95
2019-03-19T09:12:53.388Z,102650.78
2019-03-19T09:15:27.726Z,102651.13
2019-03-19T09:17:56.997Z,102651.52
2019-03-19T09:20:26.176Z,102655.00
2019-03-19T09:22:55.372Z,102651.81
2019-03-19T09:25:24.573Z,102654.91
2019-03-19T09:27:53.745Z,102656.20
2019-03-19T09:30:24.077Z,102652.77
2019-03-19T09:32:53.262Z,102658.19
2019-03-19T09:35:22.500Z,102664.34
2019-03-19T09:37:58.483Z,102663.44
2019-03-19T09:40:22.994Z,102678.00
2019-03-19T09:42:52.169Z,102675.79
2019-03-19T09:45:21.412Z,102676.02
2019-03-19T09:47:50.587Z,102676.27
2019-03-19T09:50:24.694Z,102674.41
2019-03-19T09:52:53.855Z,102681.72
2019-03-19T09:55:23.116Z,102688.38
2019-03-19T09:57:52.309Z,102687.84
2019-03-19T10:00:23.307Z,102684.13
2019-03-19T10:02:52.483Z,102692.03
2019-03-19T10:05:21.654Z,102692.77
2019-03-19T10:07:50.854Z,102694.91
2019-03-19T10:10:21.261Z,102693.25
2019-03-19T10:12:50.478Z,102698.17
2019-03-19T10:15:19.727Z,102693.61
2019-03-19T10:17:48.908Z,102698.31
2019-03-19T10:20:22.179Z,102696.27
2019-03-19T10:22:51.358Z,102698.81
2019-03-19T10:25:20.551Z,102697.20
2019-03-19T10:27:49.715Z,102698.41
2019-03-19T10:30:24.971Z,102701.77
2019-03-19T10:32:54.148Z,102693.63
2019-03-19T10:35:23.337Z,102695.66
2019-03-19T10:37:52.534Z,102691.31
2019-03-19T10:40:22.356Z,102691.54
2019-03-19T10:42:51.537Z,102692.21
2019-03-19T10:45:22.814Z,102688.66
2019-03-19T10:47:52.410Z,102688.17
2019-03-19T10:50:26.384Z,102689.56
2019-03-19T10:52:55.568Z,102690.44
2019-03-19T10:55:25.729Z,102687.18
2019-03-19T10:57:54.910Z,102685.16
2019-03-19T11:00:27.589Z,102683.48
2019-03-19T11:02:56.798Z,102687.17
2019-03-19T11:05:26.343Z,102695.74
2019-03-19T11:07:55.517Z,102695.74
2019-03-19T11:10:24.709Z,102694.37
2019-03-19T11:12:53.909Z,102702.23
2019-03-19T11:15:27.185Z,102701.77
2019-03-19T11:17:56.366Z,102707.73
2019-03-19T11:20:25.556Z,102704.24
2019-03-19T11:22:54.751Z,102703.12
2019-03-19T11:25:30.812Z,102703.12
2019-03-19T11:28:00.016Z,102705.39
2019-03-19T11:30:30.454Z,102706.00
2019-03-19T11:32:59.620Z,102709.14
2019-03-19T11:35:28.932Z,102703.53
2019-03-19T11:37:58.116Z,102703.53
2019-03-19T11:40:27.299Z,102702.93
2019-03-19T11:42:56.476Z,102694.89
2019-03-19T11:45:26.026Z,102698.55
2019-03-19T11:47:55.212Z,102703.45
2019-03-19T11:50:28.434Z,102708.13
2019-03-19T11:52:57.630Z,102705.89
2019-03-19T11:55:26.879Z,102700.25
2019-03-19T11:57:57.597Z,102701.34
2019-03-19T12:00:37.293Z,102701.34
2019-03-19T12:03:14.995Z,102699.88
2019-03-19T12:05:37.719Z,102709.69
2019-03-19T12:08:07.075Z,102708.66
2019-03-19T12:10:36.264Z,102699.05
2019-03-19T12:13:05.688Z,102702.38
2019-03-19T12:15:34.897Z,102702.38
2019-03-19T12:18:04.347Z,102699.84
2019-03-19T12:20:33.522Z,102714.35
2019-03-19T12:23:02.772Z,102704.89
2019-03-19T12:25:31.888Z,102704.89
2019-03-19T12:28:01.178Z,102702.92
2019-03-19T12:30:30.358Z,102702.92
2019-03-19T12:32:59.545Z,102709.78
2019-03-19T12:35:30.787Z,102715.05
2019-03-19T12:37:59.675Z,102711.32
2019-03-19T12:40:36.780Z,102711.32
2019-03-19T12:42:59.897Z,102709.48
2019-03-19T12:45:29.075Z,102709.48
2019-03-19T12:47:58.255Z,102712.48
2019-03-19T12:50:27.664Z,102712.48
2019-03-19T12:52:57.011Z,102703.48
2019-03-19T12:55:26.146Z,102699.02
2019-03-19T12:57:55.324Z,102709.25
2019-03-19T13:00:34.354Z,102700.87
2019-03-19T13:02:56.711Z,102700.87
2019-03-19T13:05:25.819Z,102686.36
2019-03-19T13:07:54.995Z,102699.70
2019-03-19T13:10:24.937Z,102698.86
2019-03-19T13:12:54.106Z,102697.55
2019-03-19T13:15:23.287Z,102694.84
2019-03-19T13:17:52.463Z,102694.84
2019-03-19T13:20:22.875Z,102699.54
2019-03-19T13:22:52.062Z,102703.02
2019-03-19T13:25:24.952Z,102690.59
2019-03-19T13:27:54.186Z,102702.29
2019-03-19T13:30:27.718Z,102702.29
2019-03-19T13:32:56.893Z,102695.17
2019-03-19T13:35:26.080Z,102696.86
2019-03-19T13:37:55.261Z,102696.86
2019-03-19T13:40:24.452Z,102689.38
2019-03-19T13:42:53.645Z,102689.38
2019-03-19T13:45:23.885Z,102693.44
2019-03-19T13:47:53.131Z,102688.19
2019-03-19T13:50:22.678Z,102687.53
2019-03-19T13:52:51.933Z,102687.03
2019-03-19T13:55:24.683Z,102687.03
2019-03-19T13:57:53.860Z,102693.27
2019-03-19T14:00:23.042Z,102698.64
2019-03-19T14:02:52.319Z,102686.88
2019-03-19T14:05:21.442Z,102698.89
2019-03-19T14:07:50.620Z,102693.28
2019-03-19T14:10:20.347Z,102693.28
2019-03-19T14:12:49.523Z,102698.52
2019-03-19T14:15:20.560Z,102689.44
2019-03-19T14:17:49.732Z,102689.38
2019-03-19T14:20:18.995Z,102689.94
2019-03-19T14:22:48.168Z,102672.22
2019-03-19T14:25:17.681Z,102686.42
2019-03-19T14:27:46.870Z,102684.62
2019-03-19T14:30:17.629Z,102680.89
2019-03-19T14:32:46.893Z,102682.67
2019-03-19T14:35:16.051Z,102689.48
2019-03-19T14:37:45.672Z,102681.87
2019-03-19T14:40:17.216Z,102682.16
2019-03-19T14:42:46.522Z,102680.48
2019-03-19T14:45:16.730Z,102676.58
2019-03-19T14:47:45.900Z,102677.33
2019-03-19T14:50:19.987Z,102681.39
2019-03-19T14:52:49.160Z,102683.29
2019-03-19T14:55:18.403Z,102681.05
2019-03-19T14:57:47.927Z,102681.33
2019-03-19T15:00:18.352Z,102683.27
2019-03-19T15:02:47.602Z,102688.08
2019-03-19T15:05:16.770Z,102689.82
2019-03-19T15:07:45.959Z,102688.67
2019-03-19T15:10:20.170Z,102681.66
2019-03-19T15:12:49.338Z,102684.84
2019-03-19T15:15:22.025Z,102685.88
2019-03-19T15:17:51.778Z,102688.20
2019-03-19T15:20:25.495Z,102693.67
2019-03-19T15:22:54.741Z,102691.42
2019-03-19T15:25:23.982Z,102687.22
2019-03-19T15:27:53.436Z,102680.48
2019-03-19T15:30:22.619Z,102688.03
2019-03-19T15:32:51.804Z,102689.94
2019-03-19T15:35:20.986Z,102700.14
2019-03-19T15:37:50.164Z,102700.17
2019-03-19T15:40:20.184Z,102697.64
2019-03-19T15:42:49.417Z,102696.43
2019-03-19T15:45:20.811Z,102698.20
2019-03-19T15:47:49.996Z,102705.26
2019-03-19T15:50:19.176Z,102704.76
2019-03-19T15:52:48.462Z,102700.36
2019-03-19T15:55:17.640Z,102697.43
2019-03-19T15:57:46.817Z,102702.48
2019-03-19T16:00:20.123Z,102701.98
2019-03-19T16:02:49.298Z,102704.48
2019-03-19T16:05:18.483Z,102703.79
2019-03-19T16:07:47.668Z,102703.79
2019-03-19T16:10:17.782Z,102697.58
2019-03-19T16:12:46.953Z,102706.56
2019-03-19T16:15:19.958Z,102712.52
2019-03-19T16:17:49.126Z,102712.52
2019-03-19T16:20:22.499Z,102713.89
2019-03-19T16:22:51.665Z,102726.30
2019-03-19T16:25:20.847Z,102721.78
2019-03-19T16:27:53.643Z,102719.60
2019-03-19T16:30:22.866Z,102722.52
2019-03-19T16:32:52.086Z,102714.52
2019-03-19T16:35:21.269Z,102711.61
2019-03-19T16:37:50.475Z,102718.32
2019-03-19T16:40:23.396Z,102709.52
2019-03-19T16:42:52.569Z,102717.77
2019-03-19T16:45:21.842Z,102717.77
2019-03-19T16:47:51.015Z,102719.89
2019-03-19T16:50:22.399Z,102719.89
2019-03-19T16:52:51.571Z,102709.75
2019-03-19T16:55:23.797Z,102719.75
2019-03-19T16:57:53.021Z,102722.05
2019-03-19T17:00:24.004Z,102724.38
2019-03-19T17:02:53.180Z,102722.45
2019-03-19T17:05:22.370Z,102718.17
2019-03-19T17:07:51.611Z,102727.93
2019-03-19T17:10:26.177Z,102720.36
2019-03-19T17:12:55.363Z,102720.36
2019-03-19T17:15:24.523Z,102731.84
2019-03-19T17:17:53.737Z,102725.11
2019-03-19T17:20:22.921Z,102739.75
2019-03-19T17:22:52.120Z,102739.75
2019-03-19T17:25:27.757Z,102740.82
2019-03-19T17:27:56.936Z,102740.82
2019-03-19T17:30:30.830Z,102744.27
2019-03-19T17:33:00.002Z,102749.35
2019-03-19T17:35:29.230Z,102749.35
2019-03-19T17:37:58.389Z,102749.02
2019-03-19T17:40:27.582Z,102749.45
2019-03-19T17:42:56.798Z,102753.48
2019-03-19T17:45:25.940Z,102753.48
2019-03-19T17:47:55.151Z,102757.28
2019-03-19T17:50:32.635Z,102759.16
2019-03-19T17:53:01.834Z,102760.24
2019-03-19T17:55:31.004Z,102756.30
2019-03-19T17:58:00.180Z,102777.66
2019-03-19T18:00:33.747Z,102777.66
2019-03-19T18:03:07.344Z,102770.59
2019-03-19T18:05:36.539Z,102770.59
2019-03-19T18:08:05.914Z,102775.39
2019-03-19T18:10:35.168Z,102775.39
2019-03-19T18:13:06.505Z,102775.55
2019-03-19T18:15:35.230Z,102773.77
2019-03-19T18:18:04.648Z,102765.34
2019-03-19T18:20:33.827Z,102782.56
2019-03-19T18:23:03.233Z,102788.31
2019-03-19T18:25:32.411Z,102788.31
2019-03-19T18:28:01.589Z,102809.21
2019-03-19T18:30:30.788Z,102797.77
2019-03-19T18:32:59.969Z,102797.77
2019-03-19T18:35:29.136Z,102802.72
2019-03-19T18:37:58.320Z,102810.27
2019-03-19T18:40:27.491Z,102810.27
2019-03-19T18:42:56.661Z,102814.95
2019-03-19T18:45:25.878Z,102810.79
2019-03-19T18:47:55.134Z,102805.63
2019-03-19T18:50:24.487Z,102812.23
2019-03-19T18:52:53.664Z,102812.23
2019-03-19T18:55:22.844Z,102821.95
2019-03-19T18:57:52.033Z,102819.36
2019-03-19T19:00:24.796Z,102823.87
2019-03-19T19:02:53.984Z,102821.53
2019-03-19T19:05:24.692Z,102821.53
2019-03-19T19:07:53.872Z,102828.84
2019-03-19T19:10:23.078Z,102828.84
2019-03-19T19:12:52.264Z,102822.55
2019-03-19T19:15:22.582Z,102830.16
2019-03-19T19:17:51.842Z,102836.41
2019-03-19T19:20:21.094Z,102836.41
2019-03-19T19:22:50.293Z,102847.25
2019-03-19T19:25:23.642Z,102849.66
2019-03-19T19:27:52.823Z,102847.56
2019-03-19T19:30:26.059Z,102856.89
2019-03-19T19:33:01.463Z,102856.89
2019-03-19T19:35:26.073Z,102865.98
2019-03-19T19:37:55.248Z,102863.29
2019-03-19T19:40:24.445Z,102863.29
2019-03-19T19:42:53.653Z,102868.18
2019-03-19T19:45:22.856Z,102871.05
2019-03-19T19:47:52.089Z,102871.50
2019-03-19T19:50:22.527Z,102879.17
2019-03-19T19:52:51.734Z,102871.48
2019-03-19T19:55:20.924Z,102871.48
2019-03-19T19:57:50.461Z,102881.70
2019-03-19T20:00:20.890Z,102881.63
2019-03-19T20:02:50.139Z,102873.63
2019-03-19T20:05:19.330Z,102873.63
2019-03-19T20:07:48.496Z,102870.13
2019-03-19T20:10:20.208Z,102871.70
2019-03-19T20:12:49.385Z,102871.70
2019-03-19T20:15:18.563Z,102877.95
2019-03-19T20:17:47.762Z,102870.97
2019-03-19T20:20:18.689Z,102870.97
2019-03-19T20:22:47.892Z,102876.95
2019-03-19T20:25:17.075Z,102876.95
2019-03-19T20:27:46.316Z,102877.54
2019-03-19T20:30:23.203Z,102877.20
2019-03-19T20:32:52.454Z,102887.91
2019-03-19T20:35:21.690Z,102884.36
2019-03-19T20:37:50.865Z,102884.36
2019-03-19T20:40:20.183Z,102882.52
2019-03-19T20:42:49.344Z,102876.84
2019-03-19T20:45:20.058Z,102877.80
2019-03-19T20:47:49.253Z,102870.27
2019-03-19T20:50:21.262Z,102872.89
2019-03-19T20:52:50.436Z,102866.20
2019-03-19T20:55:19.603Z,102867.13
2019-03-19T20:57:48.731Z,102868.13
2019-03-19T21:00:18.561Z,102880.50
2019-03-19T21:02:47.802Z,102885.77
2019-03-19T21:05:17.001Z,102889.77
2019-03-19T21:07:46.183Z,102896.40
2019-03-19T21:10:19.976Z,102896.78
2019-03-19T21:12:49.460Z,102899.36
2019-03-19T21:15:21.685Z,102900.19
2019-03-19T21:17:50.955Z,102908.98
2019-03-19T21:20:20.207Z,102908.98
2019-03-19T21:22:49.442Z,102911.25
2019-03-19T21:25:18.647Z,102913.61
2019-03-19T21:27:47.852Z,102912.28
2019-03-19T21:30:20.563Z,102919.33
2019-03-19T21:32:49.745Z,102918.96
2019-03-19T21:35:27.815Z,102922.35
2019-03-19T21:37:57.025Z,102922.35
2019-03-19T21:40:26.223Z,102921.98
2019-03-19T21:42:55.425Z,102904.30
2019-03-19T21:45:24.630Z,102916.23
2019-03-19T21:47:53.832Z,102915.39
2019-03-19T21:50:24.352Z,102901.66
2019-03-19T21:52:53.530Z,102894.72
2019-03-19T21:55:22.719Z,102894.72
2019-03-19T21:57:51.902Z,102886.68
2019-03-19T22:00:25.361Z,102886.68
2019-03-19T22:02:54.534Z,102883.99
2019-03-19T22:05:25.762Z,102879.19
2019-03-19T22:07:55.003Z,102885.89
2019-03-19T22:10:24.170Z,102880.48
2019-03-19T22:12:53.482Z,102891.80
2019-03-19T22:15:24.748Z,102889.48
2019-03-19T22:17:53.924Z,102889.00
2019-03-19T22:20:23.111Z,102894.47
2019-03-19T22:22:52.292Z,102905.67
2019-03-19T22:25:21.478Z,102904.42
2019-03-19T22:27:50.672Z,102910.25
2019-03-19T22:30:20.587Z,102905.22
2019-03-19T22:32:49.832Z,102914.17
2019-03-19T22:35:19.025Z,102912.73
2019-03-19T22:37:48.210Z,102909.29
2019-03-19T22:40:18.042Z,102919.05
2019-03-19T22:42:47.495Z,102914.16
2019-03-19T22:45:18.584Z,102913.72
2019-03-19T22:47:47.845Z,102919.61
2019-03-19T22:50:18.901Z,102918.70
2019-03-19T22:52:48.144Z,102919.54
2019-03-19T22:55:28.147Z,102918.66
2019-03-19T22:57:48.216Z,102912.75
2019-03-19T23:00:23.598Z,102912.28
2019-03-19T23:02:52.804Z,102905.30
2019-03-19T23:05:21.982Z,102909.35
2019-03-19T23:07:51.158Z,102906.72
2019-03-19T23:10:20.346Z,102909.80
2019-03-19T23:12:49.518Z,102919.30
2019-03-19T23:15:19.190Z,102919.30
2019-03-19T23:17:48.375Z,102927.85
2019-03-19T23:20:17.558Z,102924.29
2019-03-19T23:22:46.750Z,102932.77
2019-03-19T23:25:15.994Z,102932.77
2019-03-19T23:27:45.186Z,102933.66
2019-03-19T23:30:18.628Z,102931.08
2019-03-19T23:32:47.798Z,102931.08
2019-03-19T23:35:16.971Z,102935.58
2019-03-19T23:37:46.271Z,102930.14
2019-03-19T23:40:17.071Z,102932.89
2019-03-19T23:42:46.252Z,102940.48
2019-03-19T23:45:15.516Z,102934.59
2019-03-19T23:47:44.712Z,102933.98
2019-03-19T23:50:18.810Z,102936.92
2019-03-19T23:52:48.338Z,102939.45
2019-03-19T23:55:17.520Z,102939.45
2019-03-19T23:57:46.706Z,102935.37
